Oud-Heverlee, Belgium
Current Conditions -  °F | °C
As of 2:20 PM on Thursday 18 Dec 2014 (Local Time) from EBBR Reporting Station
Broken Clouds Broken Clouds  
Wind Chill: 54°   Ceiling: 800
Heat Index: 54°   Visibility: 6mi
Dew Point: 50°   Wind: 17mph
Humidity: 88%   Direction: 250°WSW
Pressure: 29.88"   Gusts: NA
Location:  50.84°N, 4.66°E
Report Text: EBBR 181320Z 25015KT 9999 BKN008 12/10 Q1012 TEMPO 25015G25KT 3500 -DZ
Loading
Personal Weather Stations






























Interactive Weather Map New forecast layout! Learn more

10-Day Weather Forecast

Advertisements
Track Severe Weather on mobile